createdAt,value
2019-03-28T00:02:28.327Z,10.77
2019-03-28T00:04:57.358Z,8.03
2019-03-28T00:07:26.415Z,9.53
2019-03-28T00:09:55.410Z,11.50
2019-03-28T00:12:24.981Z,9.50
2019-03-28T00:14:54.055Z,10.40
2019-03-28T00:17:23.052Z,9.37
2019-03-28T00:19:52.079Z,9.43
2019-03-28T00:22:33.520Z,9.60
2019-03-28T00:25:06.290Z,18.13
2019-03-28T00:27:54.078Z,17.50
2019-03-28T00:30:23.166Z,11.47
2019-03-28T00:32:52.381Z,11.63
2019-03-28T00:35:21.666Z,11.47
2019-03-28T00:37:50.687Z,11.53
2019-03-28T00:40:19.717Z,10.97
2019-03-28T00:42:48.725Z,9.40
2019-03-28T00:45:17.779Z,13.53
2019-03-28T00:47:46.800Z,14.03
2019-03-28T00:50:15.978Z,12.47
2019-03-28T00:52:45.004Z,11.13
2019-03-28T00:55:14.244Z,8.90
2019-03-28T00:57:44.100Z,10.00
2019-03-28T01:00:14.293Z,10.27
2019-03-28T01:02:43.566Z,10.33
2019-03-28T01:05:12.811Z,9.77
2019-03-28T01:07:41.906Z,11.23
2019-03-28T01:10:11.762Z,8.73
2019-03-28T01:12:40.931Z,8.10
2019-03-28T01:15:10.202Z,10.63
2019-03-28T01:17:39.390Z,8.53
2019-03-28T01:20:08.795Z,9.97
2019-03-28T01:22:37.794Z,10.10
2019-03-28T01:25:07.257Z,10.83
2019-03-28T01:27:36.243Z,12.33
2019-03-28T01:30:05.551Z,9.77
2019-03-28T01:32:36.042Z,10.37
2019-03-28T01:35:05.034Z,11.10
2019-03-28T01:37:34.043Z,11.00
2019-03-28T01:40:04.083Z,8.77
2019-03-28T01:42:33.076Z,10.50
2019-03-28T01:45:02.117Z,12.07
2019-03-28T01:47:31.212Z,11.60
2019-03-28T01:50:00.288Z,10.00
2019-03-28T01:52:29.307Z,10.50
2019-03-28T01:54:58.362Z,9.83
2019-03-28T01:57:27.736Z,10.67
2019-03-28T01:59:56.706Z,11.40
2019-03-28T02:02:26.293Z,10.90
2019-03-28T02:04:55.296Z,11.00
2019-03-28T02:07:24.218Z,11.10
2019-03-28T02:09:54.550Z,11.53
2019-03-28T02:12:23.599Z,12.67
2019-03-28T02:14:52.707Z,8.13
2019-03-28T02:17:21.933Z,12.50
2019-03-28T02:19:52.052Z,14.60
2019-03-28T02:22:21.263Z,12.07
2019-03-28T02:24:50.295Z,11.43
2019-03-28T02:27:24.245Z,11.63
2019-03-28T02:29:50.308Z,10.83
2019-03-28T02:32:19.509Z,9.90
2019-03-28T02:34:49.167Z,9.47
2019-03-28T02:37:18.493Z,10.80
2019-03-28T02:39:47.687Z,10.37
2019-03-28T02:42:16.731Z,14.43
2019-03-28T02:44:45.883Z,15.10
2019-03-28T02:47:15.632Z,11.47
2019-03-28T02:49:45.824Z,13.00
2019-03-28T02:52:15.056Z,13.70
2019-03-28T02:54:44.142Z,12.17
2019-03-28T02:57:13.345Z,12.00
2019-03-28T02:59:42.392Z,9.50
2019-03-28T03:02:11.499Z,11.40
2019-03-28T03:04:40.539Z,10.27
2019-03-28T03:07:09.560Z,15.77
2019-03-28T03:09:38.612Z,12.97
2019-03-28T03:12:07.655Z,12.90
2019-03-28T03:14:37.528Z,12.40
2019-03-28T03:17:07.106Z,16.33
2019-03-28T03:19:36.317Z,14.47
2019-03-28T03:22:05.344Z,14.43
2019-03-28T03:24:34.546Z,11.73
2019-03-28T03:27:03.575Z,13.07
2019-03-28T03:29:33.134Z,15.37
2019-03-28T03:32:02.186Z,14.03
2019-03-28T03:34:33.023Z,12.07
2019-03-28T03:37:03.809Z,11.40
2019-03-28T03:39:33.264Z,12.70
2019-03-28T03:42:02.266Z,11.87
2019-03-28T03:44:31.842Z,11.53
2019-03-28T03:47:00.858Z,12.43
2019-03-28T03:49:30.686Z,14.60
2019-03-28T03:52:00.927Z,17.17
2019-03-28T03:54:29.954Z,17.10
2019-03-28T03:56:59.150Z,13.63
2019-03-28T03:59:28.397Z,15.07
2019-03-28T04:01:57.740Z,13.60
2019-03-28T04:04:28.248Z,14.80
2019-03-28T04:06:57.290Z,14.07
2019-03-28T04:09:26.314Z,12.83
2019-03-28T04:11:55.360Z,10.90
2019-03-28T04:14:24.378Z,11.23
2019-03-28T04:16:53.412Z,17.50
2019-03-28T04:19:22.623Z,16.90
2019-03-28T04:21:51.749Z,15.10
2019-03-28T04:24:39.545Z,14.23
2019-03-28T04:27:08.624Z,14.33
2019-03-28T04:29:37.641Z,16.33
2019-03-28T04:32:06.699Z,16.80
2019-03-28T04:34:35.910Z,13.93
2019-03-28T04:37:04.944Z,16.87
2019-03-28T04:39:34.025Z,19.23
2019-03-28T04:42:03.295Z,15.90
2019-03-28T04:44:32.337Z,20.40
2019-03-28T04:47:01.390Z,16.27
2019-03-28T04:49:30.936Z,20.73
2019-03-28T04:51:59.975Z,20.10
2019-03-28T04:54:46.553Z,17.93
2019-03-28T04:57:16.375Z,19.93
2019-03-28T04:59:45.368Z,19.77
2019-03-28T05:02:14.455Z,19.37
2019-03-28T05:04:43.453Z,15.33
2019-03-28T05:07:12.755Z,19.03
2019-03-28T05:09:41.852Z,19.00
2019-03-28T05:12:11.503Z,19.43
2019-03-28T05:14:40.601Z,15.67
2019-03-28T05:17:09.894Z,22.93
2019-03-28T05:19:39.142Z,23.37
2019-03-28T05:22:08.221Z,18.70
2019-03-28T05:24:37.453Z,20.33
2019-03-28T05:27:07.343Z,15.73
2019-03-28T05:29:36.506Z,13.57
2019-03-28T05:32:05.542Z,19.13
2019-03-28T05:34:34.634Z,15.63
2019-03-28T05:37:03.658Z,19.40
2019-03-28T05:39:32.775Z,20.67
2019-03-28T05:42:01.800Z,23.77
2019-03-28T05:44:30.850Z,19.13
2019-03-28T05:47:00.911Z,17.03
2019-03-28T05:49:29.951Z,15.30
2019-03-28T05:51:59.169Z,17.67
2019-03-28T05:54:28.372Z,19.67
2019-03-28T05:56:57.452Z,15.27
2019-03-28T05:59:26.507Z,17.47
2019-03-28T06:01:55.539Z,18.83
2019-03-28T06:04:24.688Z,18.50
2019-03-28T06:06:53.684Z,19.13
2019-03-28T06:09:22.720Z,18.83
2019-03-28T06:11:53.029Z,21.50
2019-03-28T06:14:22.390Z,24.37
2019-03-28T06:16:51.521Z,18.43
2019-03-28T06:19:20.752Z,22.63
2019-03-28T06:21:49.844Z,19.73
2019-03-28T06:24:21.454Z,18.00
2019-03-28T06:26:50.458Z,20.83
2019-03-28T06:29:24.149Z,18.17
2019-03-28T06:31:55.587Z,21.10
2019-03-28T06:34:21.181Z,18.80
2019-03-28T06:36:50.282Z,18.10
2019-03-28T06:39:19.347Z,23.40
2019-03-28T06:41:48.802Z,18.23
2019-03-28T06:44:18.061Z,20.00
2019-03-28T06:46:47.092Z,18.03
2019-03-28T06:49:18.056Z,21.63
2019-03-28T06:51:47.131Z,22.80
2019-03-28T06:54:16.152Z,17.23
2019-03-28T06:56:45.264Z,20.83
2019-03-28T06:59:14.622Z,21.23
2019-03-28T07:01:43.708Z,16.00
2019-03-28T07:04:12.726Z,20.37
2019-03-28T07:06:41.821Z,19.80
2019-03-28T07:09:10.830Z,18.30
2019-03-28T07:11:39.900Z,17.33
2019-03-28T07:14:09.038Z,19.67
2019-03-28T07:16:38.145Z,22.87
2019-03-28T07:19:07.370Z,21.07
2019-03-28T07:21:36.571Z,18.17
2019-03-28T07:24:05.606Z,20.63
2019-03-28T07:26:34.867Z,16.20
2019-03-28T07:29:03.888Z,21.30
2019-03-28T07:31:35.393Z,17.70
2019-03-28T07:34:03.750Z,19.20
2019-03-28T07:36:32.818Z,22.03
2019-03-28T07:39:01.877Z,18.43
2019-03-28T07:41:31.334Z,18.75
2019-03-28T07:44:00.333Z,23.60
2019-03-28T07:46:29.492Z,16.73
2019-03-28T07:48:58.537Z,23.63
2019-03-28T07:51:28.115Z,19.80
2019-03-28T07:53:57.283Z,20.30
2019-03-28T07:56:26.381Z,18.10
2019-03-28T07:58:55.479Z,25.80
2019-03-28T08:01:24.563Z,21.33
2019-03-28T08:03:53.806Z,20.13
2019-03-28T08:06:22.805Z,23.40
2019-03-28T08:08:51.893Z,19.13
2019-03-28T08:11:21.085Z,18.10
2019-03-28T08:13:50.454Z,17.73
2019-03-28T08:16:19.518Z,18.47
2019-03-28T08:18:48.668Z,17.23
2019-03-28T08:21:17.880Z,17.13
2019-03-28T08:23:46.910Z,16.23
2019-03-28T08:26:16.323Z,21.20
2019-03-28T08:28:45.386Z,18.53
2019-03-28T08:31:15.027Z,17.87
2019-03-28T08:33:44.524Z,16.77
2019-03-28T08:36:14.906Z,20.80
2019-03-28T08:38:51.981Z,17.57
2019-03-28T08:41:21.007Z,16.80
2019-03-28T08:43:50.055Z,16.47
2019-03-28T08:46:19.270Z,18.43
2019-03-28T08:48:48.579Z,15.50
2019-03-28T08:51:18.132Z,16.90
2019-03-28T08:53:47.389Z,17.63
2019-03-28T08:56:16.868Z,18.47
2019-03-28T08:58:45.987Z,19.63
2019-03-28T09:01:15.509Z,20.53
2019-03-28T09:03:44.630Z,15.57
2019-03-28T09:06:16.910Z,17.87
2019-03-28T09:08:44.581Z,17.57
2019-03-28T09:11:13.763Z,20.40
2019-03-28T09:13:42.832Z,11.90
2019-03-28T09:16:12.415Z,13.83
2019-03-28T09:18:41.441Z,15.27
2019-03-28T09:21:10.507Z,14.33
2019-03-28T09:23:40.035Z,13.00
2019-03-28T09:26:09.059Z,15.07
2019-03-28T09:28:38.058Z,12.53
2019-03-28T09:31:19.142Z,16.63
2019-03-28T09:33:40.554Z,17.40
2019-03-28T09:36:08.618Z,15.07
2019-03-28T09:38:37.650Z,13.03
2019-03-28T09:41:06.755Z,15.53
2019-03-28T09:43:35.777Z,13.87
2019-03-28T09:46:04.850Z,13.60
2019-03-28T09:48:33.869Z,12.90
2019-03-28T09:51:02.948Z,13.37
2019-03-28T09:53:32.087Z,10.57
2019-03-28T09:56:01.162Z,13.90
2019-03-28T09:58:30.191Z,12.80
2019-03-28T10:01:03.125Z,17.37
2019-03-28T10:03:30.316Z,15.57
2019-03-28T10:05:59.363Z,17.17
2019-03-28T10:08:28.556Z,18.70
2019-03-28T10:10:57.619Z,18.10
2019-03-28T10:13:26.686Z,13.23
2019-03-28T10:15:57.414Z,12.80
2019-03-28T10:18:29.876Z,15.20
2019-03-28T10:20:57.437Z,12.57
2019-03-28T10:23:26.602Z,12.63
2019-03-28T10:25:55.620Z,14.43
2019-03-28T10:28:25.164Z,12.67
2019-03-28T10:30:54.293Z,10.93
2019-03-28T10:33:24.518Z,11.87
2019-03-28T10:35:54.097Z,12.70
2019-03-28T10:38:23.218Z,11.60
2019-03-28T10:40:52.252Z,16.57
2019-03-28T10:43:21.488Z,11.17
2019-03-28T10:45:51.092Z,10.43
2019-03-28T10:48:23.350Z,8.93
2019-03-28T10:50:51.246Z,9.63
2019-03-28T10:53:20.547Z,11.30
2019-03-28T10:55:49.843Z,13.57
2019-03-28T10:58:19.752Z,11.80
2019-03-28T11:00:48.966Z,12.20
2019-03-28T11:03:18.682Z,11.53
2019-03-28T11:05:47.715Z,13.40
2019-03-28T11:08:16.812Z,11.93
2019-03-28T11:10:45.895Z,9.93
2019-03-28T11:13:15.084Z,11.23
2019-03-28T11:15:44.403Z,9.10
2019-03-28T11:18:14.999Z,9.77
2019-03-28T11:20:44.027Z,10.00
2019-03-28T11:23:13.122Z,12.13
2019-03-28T11:25:42.220Z,9.27
2019-03-28T11:28:11.382Z,10.60
2019-03-28T11:30:40.772Z,12.83
2019-03-28T11:33:10.472Z,12.03
2019-03-28T11:35:39.591Z,7.30
2019-03-28T11:38:09.739Z,8.27
2019-03-28T11:40:42.773Z,13.03
2019-03-28T11:43:10.907Z,10.83
2019-03-28T11:45:40.177Z,8.63
2019-03-28T11:48:09.316Z,11.87
2019-03-28T11:50:38.675Z,8.63
2019-03-28T11:53:07.982Z,11.07
2019-03-28T11:55:55.916Z,9.93
2019-03-28T11:58:25.211Z,8.77
2019-03-28T12:00:54.290Z,7.40
2019-03-28T12:03:23.610Z,6.27
2019-03-28T12:05:53.280Z,6.73
2019-03-28T12:08:22.704Z,7.27
2019-03-28T12:10:51.800Z,8.30
2019-03-28T12:13:20.958Z,6.43
2019-03-28T12:15:50.857Z,7.63
2019-03-28T12:18:20.591Z,7.23
2019-03-28T12:20:49.695Z,3.87
2019-03-28T12:23:19.224Z,5.93
2019-03-28T12:25:48.315Z,4.33
2019-03-28T12:28:17.316Z,4.03
2019-03-28T12:30:46.377Z,4.63
2019-03-28T12:33:15.663Z,6.67
2019-03-28T12:35:44.734Z,5.90
2019-03-28T12:38:13.800Z,6.40
2019-03-28T12:40:42.905Z,5.23
2019-03-28T12:43:11.988Z,6.30
2019-03-28T12:45:41.239Z,4.93
2019-03-28T12:48:10.353Z,4.50
2019-03-28T12:50:39.476Z,3.97
2019-03-28T12:53:08.562Z,4.70
2019-03-28T12:55:37.604Z,3.07
2019-03-28T12:58:06.810Z,4.70
2019-03-28T13:00:36.799Z,6.37
2019-03-28T13:03:06.103Z,6.17
2019-03-28T13:05:35.861Z,5.83
2019-03-28T13:08:04.876Z,7.87
2019-03-28T13:10:33.949Z,6.67
2019-03-28T13:13:03.819Z,5.30
2019-03-28T13:15:33.313Z,9.60
2019-03-28T13:18:02.377Z,4.63
2019-03-28T13:20:31.387Z,5.90
2019-03-28T13:23:00.566Z,7.40
2019-03-28T13:25:29.742Z,5.87
2019-03-28T13:27:58.986Z,6.20
2019-03-28T13:30:28.023Z,5.00
2019-03-28T13:32:58.606Z,6.70
2019-03-28T13:35:27.909Z,6.27
2019-03-28T13:37:57.000Z,4.83
2019-03-28T13:40:26.487Z,6.30
2019-03-28T13:42:55.546Z,5.50
2019-03-28T13:45:24.640Z,6.90
2019-03-28T13:47:54.426Z,4.97
2019-03-28T13:50:24.031Z,7.50
2019-03-28T13:52:53.087Z,7.23
2019-03-28T13:55:22.143Z,4.80
2019-03-28T13:57:52.393Z,6.13
2019-03-28T14:03:09.070Z,6.53
2019-03-28T14:05:38.193Z,5.10
2019-03-28T14:08:07.302Z,6.60
2019-03-28T14:10:36.459Z,7.57
2019-03-28T14:13:05.545Z,7.97
2019-03-28T14:15:34.798Z,4.67
2019-03-28T14:18:04.069Z,7.03
2019-03-28T14:20:33.124Z,4.70
2019-03-28T14:23:02.266Z,7.17
2019-03-28T14:25:31.391Z,5.43
2019-03-28T14:28:00.467Z,6.93
2019-03-28T14:30:29.595Z,4.43
2019-03-28T14:33:10.670Z,8.20
2019-03-28T14:35:29.698Z,9.37
2019-03-28T14:37:58.818Z,13.13
2019-03-28T14:40:28.630Z,12.00
2019-03-28T14:42:58.506Z,9.97
2019-03-28T14:45:27.740Z,11.43
2019-03-28T14:47:57.127Z,11.53
2019-03-28T14:50:33.652Z,11.43
2019-03-28T14:53:02.787Z,12.10
2019-03-28T14:55:33.579Z,11.53
2019-03-28T14:58:03.521Z,15.23
2019-03-28T15:00:51.585Z,12.93
2019-03-28T15:03:26.140Z,14.10
2019-03-28T15:05:51.914Z,13.93
2019-03-28T15:08:21.195Z,12.70
2019-03-28T15:10:50.447Z,15.07
2019-03-28T15:13:21.247Z,15.83
2019-03-28T15:15:52.941Z,14.70
2019-03-28T15:18:22.127Z,14.17
2019-03-28T15:20:51.252Z,14.17
2019-03-28T15:23:20.702Z,14.50
2019-03-28T15:25:49.930Z,13.50
2019-03-28T15:28:19.202Z,13.07
2019-03-28T15:30:48.474Z,14.37
2019-03-28T15:33:17.507Z,12.57
2019-03-28T15:35:46.820Z,13.77
2019-03-28T15:38:15.899Z,12.93
2019-03-28T15:40:44.967Z,17.00
2019-03-28T15:43:14.046Z,13.57
2019-03-28T15:45:43.187Z,12.50
2019-03-28T15:48:12.286Z,14.27
2019-03-28T15:50:41.534Z,13.00
2019-03-28T15:53:10.705Z,13.57
2019-03-28T15:55:40.336Z,15.37
2019-03-28T15:58:22.081Z,10.33
2019-03-28T16:00:41.712Z,12.37
2019-03-28T16:03:11.023Z,15.97
2019-03-28T16:05:40.365Z,13.53
2019-03-28T16:08:09.486Z,12.67
2019-03-28T16:10:38.570Z,14.40
2019-03-28T16:13:07.649Z,13.77
2019-03-28T16:15:36.957Z,12.23
2019-03-28T16:18:06.022Z,14.90
2019-03-28T16:20:35.115Z,12.57
2019-03-28T16:23:04.312Z,12.33
2019-03-28T16:25:33.654Z,13.57
2019-03-28T16:28:02.716Z,15.27
2019-03-28T16:30:35.495Z,12.47
2019-03-28T16:33:04.579Z,14.73
2019-03-28T16:35:33.740Z,12.50
2019-03-28T16:38:04.574Z,13.30
2019-03-28T16:40:33.944Z,11.63
2019-03-28T16:43:02.976Z,13.03
2019-03-28T16:45:32.225Z,14.13
2019-03-28T16:48:01.369Z,14.27
2019-03-28T16:50:30.786Z,14.17
2019-03-28T16:53:00.319Z,13.53
2019-03-28T16:55:30.350Z,10.80
2019-03-28T16:58:00.048Z,11.27
2019-03-28T17:00:36.462Z,11.93
2019-03-28T17:03:06.164Z,13.33
2019-03-28T17:05:35.465Z,14.30
2019-03-28T17:08:05.077Z,11.83
2019-03-28T17:10:47.611Z,9.80
2019-03-28T17:13:17.007Z,8.83
2019-03-28T17:15:46.160Z,10.13
2019-03-28T17:18:18.409Z,11.90
2019-03-28T17:20:46.391Z,16.10
2019-03-28T17:23:17.523Z,11.80
2019-03-28T17:25:47.471Z,9.90
2019-03-28T17:28:16.582Z,10.67
2019-03-28T17:30:46.016Z,10.63
2019-03-28T17:33:17.765Z,12.83
2019-03-28T17:35:46.848Z,10.23
2019-03-28T17:38:16.509Z,10.47
2019-03-28T17:40:51.989Z,14.27
2019-03-28T17:43:21.212Z,13.30
2019-03-28T17:45:50.324Z,11.43
2019-03-28T17:48:23.480Z,10.60
2019-03-28T17:50:52.919Z,12.30
2019-03-28T17:53:24.046Z,10.40
2019-03-28T17:55:53.105Z,12.93
2019-03-28T17:58:22.444Z,12.50
2019-03-28T18:00:51.954Z,12.87
2019-03-28T18:03:31.218Z,14.90
2019-03-28T18:05:58.325Z,14.33
2019-03-28T18:08:24.914Z,15.00
2019-03-28T18:10:54.185Z,11.27
2019-03-28T18:13:23.582Z,12.83
2019-03-28T18:15:52.992Z,11.93
2019-03-28T18:18:22.581Z,14.50
2019-03-28T18:20:52.087Z,12.90
2019-03-28T18:23:22.220Z,14.10
2019-03-28T18:25:51.551Z,14.40
2019-03-28T18:28:20.812Z,12.47
2019-03-28T18:30:54.357Z,12.77
2019-03-28T18:33:23.723Z,12.50
2019-03-28T18:35:53.130Z,15.07
2019-03-28T18:38:24.519Z,11.40
2019-03-28T18:40:53.988Z,19.17
2019-03-28T18:43:23.798Z,11.13
2019-03-28T18:45:53.055Z,13.87
2019-03-28T18:48:30.813Z,10.27
2019-03-28T18:50:54.334Z,13.33
2019-03-28T18:53:24.218Z,17.77
2019-03-28T18:55:55.167Z,14.20
2019-03-28T18:58:25.318Z,12.40
2019-03-28T19:00:54.528Z,14.47
2019-03-28T19:03:23.766Z,10.97
2019-03-28T19:05:53.030Z,12.37
2019-03-28T19:08:22.339Z,13.23
2019-03-28T19:10:51.575Z,11.83
2019-03-28T19:13:21.553Z,13.30
2019-03-28T19:15:50.709Z,11.87
2019-03-28T19:18:19.879Z,13.07
2019-03-28T19:20:49.567Z,15.03
2019-03-28T19:23:18.767Z,15.13
2019-03-28T19:25:48.065Z,12.50
2019-03-28T19:28:28.126Z,16.43
2019-03-28T19:30:48.172Z,13.83
2019-03-28T19:33:17.249Z,13.03
2019-03-28T19:35:47.769Z,14.57
2019-03-28T19:38:17.690Z,15.23
2019-03-28T19:40:46.865Z,13.43
2019-03-28T19:43:20.782Z,15.27
2019-03-28T19:45:47.574Z,15.20
2019-03-28T19:48:16.759Z,13.70
2019-03-28T19:50:46.021Z,14.00
2019-03-28T19:53:15.196Z,15.33
2019-03-28T19:55:44.531Z,11.97
2019-03-28T19:58:14.033Z,11.93
2019-03-28T20:00:44.682Z,14.13
2019-03-28T20:03:14.041Z,14.13
2019-03-28T20:05:47.840Z,13.17
2019-03-28T20:08:16.308Z,12.80
2019-03-28T20:10:45.547Z,11.50
2019-03-28T20:13:14.760Z,12.63
2019-03-28T20:15:44.139Z,13.33
2019-03-28T20:18:13.467Z,18.07
2019-03-28T20:20:42.627Z,12.73
2019-03-28T20:23:12.211Z,11.77
2019-03-28T20:25:42.940Z,12.73
2019-03-28T20:28:14.412Z,12.50
2019-03-28T20:30:43.380Z,14.03
2019-03-28T20:33:12.884Z,15.60
2019-03-28T20:35:42.167Z,16.47
2019-03-28T20:38:11.425Z,13.03
2019-03-28T20:40:43.231Z,14.23
2019-03-28T20:43:11.428Z,13.00
2019-03-28T20:45:40.775Z,17.30
2019-03-28T20:48:10.058Z,11.87
2019-03-28T20:50:39.493Z,14.03
2019-03-28T20:53:08.696Z,15.80
2019-03-28T20:55:38.031Z,15.03
2019-03-28T20:58:07.459Z,15.90
2019-03-28T21:00:38.926Z,13.53
2019-03-28T21:03:08.621Z,12.70
2019-03-28T21:05:37.713Z,14.30
2019-03-28T21:08:07.361Z,15.57
2019-03-28T21:10:36.782Z,13.63
2019-03-28T21:13:06.500Z,12.67
2019-03-28T21:15:35.667Z,14.20
2019-03-28T21:18:05.107Z,11.17
2019-03-28T21:20:40.389Z,12.23
2019-03-28T21:23:09.659Z,12.13
2019-03-28T21:25:38.775Z,14.90
2019-03-28T21:28:08.065Z,14.00
2019-03-28T21:30:47.103Z,12.77
2019-03-28T21:33:08.437Z,14.20
2019-03-28T21:35:38.978Z,15.30
2019-03-28T21:38:27.059Z,13.20
2019-03-28T21:40:59.394Z,14.60
2019-03-28T21:43:27.151Z,14.27
2019-03-28T21:45:56.380Z,11.70
2019-03-28T21:48:26.930Z,14.80
2019-03-28T21:50:56.252Z,11.30
2019-03-28T21:53:25.612Z,12.83
2019-03-28T21:55:57.264Z,11.63
2019-03-28T21:58:25.961Z,12.93
2019-03-28T22:00:55.387Z,9.97
2019-03-28T22:03:24.558Z,12.20
2019-03-28T22:05:53.639Z,11.63
2019-03-28T22:08:22.911Z,11.43
2019-03-28T22:10:52.238Z,11.90
2019-03-28T22:13:41.254Z,13.30
2019-03-28T22:16:10.859Z,12.53
2019-03-28T22:18:40.049Z,14.30
2019-03-28T22:21:09.411Z,11.97
2019-03-28T22:23:39.384Z,12.17
2019-03-28T22:26:08.685Z,15.50
2019-03-28T22:28:38.189Z,11.17
2019-03-28T22:31:07.463Z,12.40
2019-03-28T22:33:36.721Z,13.30
2019-03-28T22:36:05.878Z,11.63
2019-03-28T22:38:35.466Z,12.70
2019-03-28T22:41:04.734Z,15.20
2019-03-28T22:43:34.079Z,12.27
2019-03-28T22:46:03.982Z,13.13
2019-03-28T22:48:33.120Z,13.53
2019-03-28T22:51:02.185Z,13.50
2019-03-28T22:53:31.382Z,13.83
2019-03-28T22:56:00.508Z,11.87
2019-03-28T22:58:29.648Z,16.20
2019-03-28T23:00:59.102Z,10.83
2019-03-28T23:03:28.684Z,11.47
2019-03-28T23:05:57.769Z,12.33
2019-03-28T23:08:26.831Z,12.83
2019-03-28T23:10:55.875Z,13.07
2019-03-28T23:13:25.015Z,15.67
2019-03-28T23:15:54.229Z,12.57
2019-03-28T23:18:23.339Z,16.70
2019-03-28T23:20:52.369Z,12.87
2019-03-28T23:23:22.235Z,12.27
2019-03-28T23:25:51.318Z,12.60
2019-03-28T23:28:20.396Z,13.90
2019-03-28T23:30:49.573Z,12.87
2019-03-28T23:33:18.739Z,15.37
2019-03-28T23:35:48.298Z,13.40
2019-03-28T23:38:17.709Z,14.13
2019-03-28T23:40:46.937Z,18.30
2019-03-28T23:43:16.181Z,14.70
2019-03-28T23:45:45.816Z,15.23
2019-03-28T23:48:15.235Z,17.40
2019-03-28T23:50:44.333Z,14.83
2019-03-28T23:53:13.447Z,15.63
2019-03-28T23:55:44.857Z,15.87
2019-03-28T23:58:15.754Z,13.37
